createdAt,value
2022-12-19T00:01:18.978Z,74.22
2022-12-19T00:03:26.604Z,82.82
2022-12-19T00:05:31.931Z,66.18
2022-12-19T00:07:37.020Z,64.15
2022-12-19T00:09:42.004Z,68.93
2022-12-19T00:11:46.727Z,48.55
2022-12-19T00:13:51.561Z,57.15
2022-12-19T00:15:56.310Z,59.30
2022-12-19T00:18:01.050Z,65.00
2022-12-19T00:20:09.422Z,59.22
2022-12-19T00:22:15.864Z,57.80
2022-12-19T00:24:21.908Z,54.38
2022-12-19T00:26:28.112Z,57.40
2022-12-19T00:28:33.356Z,59.05
2022-12-19T00:30:38.200Z,69.22
2022-12-19T00:32:43.696Z,56.60
2022-12-19T00:34:48.623Z,49.85
2022-12-19T00:36:55.945Z,44.03
2022-12-19T00:39:02.098Z,55.75
2022-12-19T00:41:13.407Z,53.35
2022-12-19T00:43:18.183Z,48.05
2022-12-19T00:45:22.901Z,51.45
2022-12-19T00:47:27.632Z,58.08
2022-12-19T00:49:32.274Z,51.67
2022-12-19T00:51:39.614Z,45.95
2022-12-19T00:53:48.386Z,43.83
2022-12-19T00:55:53.283Z,43.20
2022-12-19T00:57:58.234Z,43.15
2022-12-19T01:00:05.664Z,41.50
2022-12-19T01:02:10.481Z,45.05
2022-12-19T01:04:28.297Z,39.40
2022-12-19T01:06:33.805Z,50.47
2022-12-19T01:08:39.351Z,42.20
2022-12-19T01:10:51.560Z,45.83
2022-12-19T01:12:53.614Z,54.57
2022-12-19T01:15:04.468Z,43.90
2022-12-19T01:17:09.927Z,40.78
2022-12-19T01:19:14.608Z,44.90
2022-12-19T01:21:19.271Z,47.92
2022-12-19T01:23:23.924Z,50.22
2022-12-19T01:25:28.495Z,41.80
2022-12-19T01:27:36.217Z,43.67
2022-12-19T01:29:52.307Z,44.17
2022-12-19T01:31:57.787Z,41.97
2022-12-19T01:34:02.781Z,47.75
2022-12-19T01:36:08.512Z,42.65
2022-12-19T01:38:16.182Z,46.90
2022-12-19T01:40:21.192Z,41.33
2022-12-19T01:42:26.159Z,43.67
2022-12-19T01:44:35.078Z,39.00
2022-12-19T01:46:41.629Z,37.38
2022-12-19T01:48:47.097Z,42.25
2022-12-19T01:51:02.103Z,47.08
2022-12-19T01:53:09.491Z,50.83
2022-12-19T01:55:14.807Z,42.83
2022-12-19T01:57:20.630Z,43.60
2022-12-19T01:59:28.323Z,42.63
2022-12-19T02:01:51.187Z,40.85
2022-12-19T02:03:58.028Z,45.35
2022-12-19T02:06:03.220Z,49.45
2022-12-19T02:08:08.541Z,51.20
2022-12-19T02:10:13.752Z,44.85
2022-12-19T02:12:18.389Z,35.63
2022-12-19T02:14:25.637Z,44.53
2022-12-19T02:16:42.235Z,46.90
2022-12-19T02:18:51.998Z,51.60
2022-12-19T02:21:28.437Z,41.40
2022-12-19T02:24:06.628Z,40.40
2022-12-19T02:26:28.200Z,42.08
2022-12-19T02:29:01.858Z,41.97
2022-12-19T02:31:16.776Z,47.55
2022-12-19T02:33:29.503Z,35.85
2022-12-19T02:35:37.200Z,41.42
2022-12-19T02:37:47.011Z,36.25
2022-12-19T02:39:54.859Z,40.03
2022-12-19T02:42:01.284Z,33.63
2022-12-19T02:44:06.364Z,39.28
2022-12-19T02:46:14.403Z,39.38
2022-12-19T02:48:19.999Z,35.35
2022-12-19T02:50:25.026Z,41.72
2022-12-19T02:52:59.728Z,40.22
2022-12-19T02:55:07.251Z,33.55
2022-12-19T02:57:16.482Z,35.63
2022-12-19T02:59:37.747Z,36.15
2022-12-19T03:01:51.062Z,29.45
2022-12-19T03:04:02.968Z,34.78
2022-12-19T03:06:11.696Z,36.35
2022-12-19T03:08:24.764Z,33.03
2022-12-19T03:10:34.560Z,24.88
2022-12-19T03:12:42.057Z,34.17
2022-12-19T03:14:48.206Z,28.95
2022-12-19T03:16:55.972Z,31.13
2022-12-19T03:19:00.894Z,28.70
2022-12-19T03:21:09.924Z,26.40
2022-12-19T03:23:14.975Z,31.83
2022-12-19T03:25:19.985Z,30.42
2022-12-19T03:27:28.660Z,25.42
2022-12-19T03:29:37.755Z,28.98
2022-12-19T03:31:42.924Z,23.58
2022-12-19T03:33:54.818Z,30.27
2022-12-19T03:36:00.388Z,28.60
2022-12-19T03:38:06.315Z,29.50
2022-12-19T03:40:14.522Z,30.45
2022-12-19T03:42:32.076Z,23.92
2022-12-19T03:44:42.240Z,24.40
2022-12-19T03:46:51.526Z,24.55
2022-12-19T03:48:59.432Z,24.17
2022-12-19T03:51:09.040Z,26.00
2022-12-19T03:53:23.173Z,27.02
2022-12-19T03:55:32.291Z,23.65
2022-12-19T03:57:42.458Z,22.00
2022-12-19T03:59:49.094Z,26.95
2022-12-19T04:01:55.872Z,22.33
2022-12-19T04:04:03.778Z,23.80
2022-12-19T04:06:09.239Z,28.33
2022-12-19T04:08:14.255Z,26.30
2022-12-19T04:10:21.938Z,25.40
2022-12-19T04:12:30.623Z,28.45
2022-12-19T04:14:37.967Z,22.13
2022-12-19T04:16:46.631Z,26.38
2022-12-19T04:18:55.873Z,22.88
2022-12-19T04:21:10.074Z,25.95
2022-12-19T04:23:18.060Z,27.20
2022-12-19T04:25:29.380Z,28.25
2022-12-19T04:27:37.851Z,23.80
2022-12-19T04:29:42.490Z,24.08
2022-12-19T04:31:48.025Z,27.52
2022-12-19T04:33:52.816Z,23.08
2022-12-19T04:35:57.461Z,23.45
2022-12-19T04:38:04.624Z,17.75
2022-12-19T04:40:12.703Z,18.50
2022-12-19T04:42:17.308Z,22.13
2022-12-19T04:44:21.924Z,20.58
2022-12-19T04:46:26.563Z,20.77
2022-12-19T04:48:31.401Z,20.23
2022-12-19T04:50:36.108Z,20.52
2022-12-19T04:52:41.704Z,25.42
2022-12-19T04:54:48.985Z,26.15
2022-12-19T04:56:53.590Z,22.85
2022-12-19T04:59:00.309Z,20.10
2022-12-19T05:01:05.187Z,20.25
2022-12-19T05:03:10.617Z,24.33
2022-12-19T05:05:15.518Z,21.25
2022-12-19T05:07:20.346Z,22.75
2022-12-19T05:09:25.124Z,21.83
2022-12-19T05:11:32.275Z,25.30
2022-12-19T05:13:36.953Z,22.10
2022-12-19T05:15:41.882Z,22.90
2022-12-19T05:17:46.555Z,19.52
2022-12-19T05:19:51.194Z,18.20
2022-12-19T05:21:55.933Z,21.48
2022-12-19T05:24:00.619Z,21.67
2022-12-19T05:26:07.024Z,22.83
2022-12-19T05:28:15.119Z,24.77
2022-12-19T05:30:20.116Z,27.00
2022-12-19T05:32:24.722Z,16.63
2022-12-19T05:34:29.477Z,21.73
2022-12-19T05:36:34.633Z,18.88
2022-12-19T05:38:40.221Z,21.27
2022-12-19T05:40:44.839Z,20.83
2022-12-19T05:42:49.455Z,21.95
2022-12-19T05:44:56.865Z,22.17
2022-12-19T05:47:01.599Z,20.77
2022-12-19T05:49:06.345Z,23.45
2022-12-19T05:51:11.350Z,19.85
2022-12-19T05:53:16.077Z,23.95
2022-12-19T05:55:21.025Z,18.95
2022-12-19T05:57:26.235Z,24.88
2022-12-19T05:59:30.819Z,24.45
2022-12-19T06:01:38.108Z,22.35
2022-12-19T06:03:42.901Z,21.83
2022-12-19T06:05:47.612Z,24.92
2022-12-19T06:07:52.404Z,18.30
2022-12-19T06:09:57.058Z,22.80
2022-12-19T06:12:01.785Z,23.63
2022-12-19T06:14:06.671Z,20.77
2022-12-19T06:16:13.937Z,22.10
2022-12-19T06:18:22.018Z,19.80
2022-12-19T06:20:26.606Z,22.90
2022-12-19T06:22:31.207Z,24.83
2022-12-19T06:24:35.876Z,26.98
2022-12-19T06:26:40.538Z,22.90
2022-12-19T06:28:45.403Z,23.38
2022-12-19T06:30:50.143Z,22.25
2022-12-19T06:32:54.886Z,21.23
2022-12-19T06:35:04.572Z,22.45
2022-12-19T06:37:09.636Z,26.83
2022-12-19T06:39:16.196Z,23.88
2022-12-19T06:41:34.096Z,18.95
2022-12-19T06:43:38.794Z,21.75
2022-12-19T06:45:44.409Z,20.95
2022-12-19T06:47:49.218Z,19.83
2022-12-19T06:49:53.860Z,16.52
2022-12-19T06:52:03.982Z,20.75
2022-12-19T06:54:13.035Z,19.42
2022-12-19T06:56:18.750Z,17.48
2022-12-19T06:58:24.508Z,19.40
2022-12-19T07:00:29.672Z,20.23
2022-12-19T07:02:35.881Z,18.88
2022-12-19T07:04:43.195Z,16.70
2022-12-19T07:06:49.418Z,15.88
2022-12-19T07:08:56.947Z,20.52
2022-12-19T07:11:01.844Z,20.25
2022-12-19T07:13:06.907Z,14.02
2022-12-19T07:15:12.343Z,16.17
2022-12-19T07:17:17.205Z,15.65
2022-12-19T07:19:22.629Z,17.02
2022-12-19T07:21:27.219Z,14.90
2022-12-19T07:23:32.337Z,14.68
2022-12-19T07:25:40.784Z,17.95
2022-12-19T07:27:45.466Z,14.90
2022-12-19T07:29:50.181Z,18.85
2022-12-19T07:31:54.807Z,14.32
2022-12-19T07:33:59.635Z,18.08
2022-12-19T07:36:04.311Z,14.10
2022-12-19T07:38:10.344Z,13.85
2022-12-19T07:40:16.809Z,17.85
2022-12-19T07:42:29.360Z,18.67
2022-12-19T07:44:36.876Z,17.65
2022-12-19T07:46:41.503Z,18.98
2022-12-19T07:48:46.243Z,18.60
2022-12-19T07:50:50.924Z,15.65
2022-12-19T07:52:55.642Z,15.50
2022-12-19T07:55:00.343Z,15.70
2022-12-19T07:57:05.508Z,18.92
2022-12-19T08:01:23.161Z,16.42
2022-12-19T08:03:28.410Z,17.95
2022-12-19T08:05:35.939Z,13.95
2022-12-19T08:07:41.637Z,16.70
2022-12-19T08:09:47.088Z,14.75
2022-12-19T08:11:51.954Z,15.93
2022-12-19T08:13:56.833Z,15.95
2022-12-19T08:16:05.614Z,16.13
2022-12-19T08:18:10.222Z,14.98
2022-12-19T08:20:15.246Z,15.57
2022-12-19T08:22:19.939Z,17.25
2022-12-19T08:24:24.951Z,17.73
2022-12-19T08:26:32.690Z,15.55
2022-12-19T08:28:42.397Z,15.70
2022-12-19T08:30:47.107Z,14.32
2022-12-19T08:32:54.397Z,15.00
2022-12-19T08:34:59.192Z,15.23
2022-12-19T08:37:03.830Z,17.15
2022-12-19T08:39:08.738Z,16.83
2022-12-19T08:41:14.100Z,14.52
2022-12-19T08:43:18.657Z,16.58
2022-12-19T08:45:23.379Z,15.88
2022-12-19T08:47:28.076Z,16.75
2022-12-19T08:49:35.503Z,16.95
2022-12-19T08:51:40.504Z,16.17
2022-12-19T08:53:46.400Z,14.65
2022-12-19T08:55:51.995Z,14.40
2022-12-19T08:57:56.694Z,13.50
2022-12-19T09:00:01.412Z,14.13
2022-12-19T09:02:06.976Z,15.32
2022-12-19T09:05:53.201Z,14.63
2022-12-19T09:06:40.236Z,18.00
2022-12-19T09:08:45.124Z,13.48
2022-12-19T09:10:49.771Z,15.50
2022-12-19T09:12:58.004Z,15.85
2022-12-19T09:15:03.035Z,15.63
2022-12-19T09:17:07.716Z,14.60
2022-12-19T09:19:15.649Z,17.02
2022-12-19T09:21:21.136Z,17.23
2022-12-19T09:23:29.908Z,16.58
2022-12-19T09:25:35.035Z,15.10
2022-12-19T09:28:17.419Z,15.95
2022-12-19T09:30:05.267Z,13.50
2022-12-19T09:32:10.429Z,17.00
2022-12-19T09:34:15.293Z,15.02
2022-12-19T09:36:23.192Z,14.45
2022-12-19T09:38:31.603Z,16.70
2022-12-19T09:40:55.890Z,13.90
2022-12-19T09:43:06.337Z,15.00
2022-12-19T09:45:33.830Z,13.23
2022-12-19T09:47:42.011Z,13.48
2022-12-19T09:49:48.425Z,14.00
2022-12-19T09:51:59.580Z,16.55
2022-12-19T09:54:11.390Z,14.18
2022-12-19T09:56:18.783Z,10.77
2022-12-19T09:58:30.748Z,14.20
2022-12-19T10:00:38.016Z,14.32
2022-12-19T10:02:47.523Z,13.43
2022-12-19T10:05:03.158Z,14.80
2022-12-19T10:07:51.326Z,12.30
2022-12-19T10:12:05.564Z,17.05
2022-12-19T10:12:42.675Z,15.45
2022-12-19T10:14:58.647Z,11.98
2022-12-19T10:17:24.210Z,11.13
2022-12-19T10:19:35.383Z,11.73
2022-12-19T10:22:17.226Z,13.75
2022-12-19T10:24:34.800Z,16.23
2022-12-19T10:26:47.261Z,15.25
2022-12-19T10:29:05.395Z,10.63
2022-12-19T10:31:21.411Z,12.98
2022-12-19T10:33:30.049Z,13.75
2022-12-19T10:35:38.675Z,12.93
2022-12-19T10:37:49.796Z,13.80
2022-12-19T10:40:02.735Z,13.30
2022-12-19T10:42:16.213Z,12.77
2022-12-19T10:44:21.679Z,10.25
2022-12-19T10:46:36.378Z,12.82
2022-12-19T10:48:41.702Z,12.20
2022-12-19T10:50:46.566Z,10.27
2022-12-19T10:52:54.631Z,13.48
2022-12-19T10:54:59.857Z,9.80
2022-12-19T10:57:25.707Z,11.32
2022-12-19T10:59:30.822Z,10.82
2022-12-19T11:01:38.222Z,13.38
2022-12-19T11:03:46.528Z,9.80
2022-12-19T11:05:58.294Z,11.23
2022-12-19T11:08:05.778Z,8.25
2022-12-19T11:11:43.494Z,13.38
2022-12-19T11:16:38.305Z,12.35
2022-12-19T11:19:37.097Z,12.18
2022-12-19T11:29:16.391Z,11.63
2022-12-19T11:29:30.743Z,12.43
2022-12-19T11:29:35.182Z,13.88
2022-12-19T11:30:07.047Z,12.93
2022-12-19T11:30:47.828Z,10.55
2022-12-19T11:31:50.864Z,16.33
2022-12-19T11:33:12.139Z,11.65
2022-12-19T11:35:24.496Z,11.10
2022-12-19T11:37:36.840Z,12.85
2022-12-19T11:39:46.726Z,14.65
2022-12-19T11:41:54.647Z,12.90
2022-12-19T11:44:03.842Z,13.55
2022-12-19T11:46:21.175Z,16.98
2022-12-19T11:48:34.701Z,15.88
2022-12-19T11:50:44.338Z,12.13
2022-12-19T11:55:07.565Z,10.32
2022-12-19T11:57:14.955Z,12.25
2022-12-19T11:59:21.800Z,15.63
2022-12-19T12:01:45.353Z,13.30
2022-12-19T12:04:04.591Z,13.40
2022-12-19T12:06:15.359Z,13.35
2022-12-19T12:10:59.124Z,12.07
2022-12-19T12:17:47.115Z,13.02
2022-12-19T12:21:19.538Z,16.00
2022-12-19T12:31:00.020Z,11.75
2022-12-19T12:31:04.444Z,12.27
2022-12-19T12:31:10.064Z,13.20
2022-12-19T12:31:49.436Z,11.63
2022-12-19T12:31:53.070Z,13.15
2022-12-19T12:32:04.669Z,16.15
2022-12-19T12:35:46.391Z,13.98
2022-12-19T12:38:10.861Z,12.85
2022-12-19T12:39:14.295Z,9.90
2022-12-19T12:41:48.823Z,11.43
2022-12-19T12:44:04.837Z,10.20
2022-12-19T12:46:15.185Z,12.02
2022-12-19T12:48:24.386Z,9.75
2022-12-19T12:50:33.795Z,11.38
2022-12-19T12:52:41.884Z,10.68
2022-12-19T12:54:48.394Z,10.55
2022-12-19T12:56:55.370Z,12.65
2022-12-19T12:59:10.256Z,11.18
2022-12-19T13:01:19.192Z,10.07
2022-12-19T13:03:27.604Z,9.40
2022-12-19T13:05:56.324Z,11.02
2022-12-19T13:08:01.019Z,12.05
2022-12-19T13:10:21.211Z,10.73
2022-12-19T13:12:42.317Z,10.07
2022-12-19T13:14:50.424Z,12.65
2022-12-19T13:16:56.475Z,9.40
2022-12-19T13:19:11.532Z,10.63
2022-12-19T13:21:25.546Z,11.13
2022-12-19T13:23:51.223Z,10.18
2022-12-19T13:25:57.060Z,9.25
2022-12-19T13:28:17.848Z,12.13
2022-12-19T13:30:23.430Z,10.40
2022-12-19T13:32:29.462Z,10.07
2022-12-19T13:34:40.088Z,12.32
2022-12-19T13:39:51.443Z,10.10
2022-12-19T13:39:59.501Z,9.85
2022-12-19T13:42:17.692Z,10.88
2022-12-19T13:44:23.129Z,10.35
2022-12-19T13:46:38.276Z,9.15
2022-12-19T13:48:45.845Z,11.07
2022-12-19T13:50:50.725Z,11.15
2022-12-19T13:52:58.611Z,11.75
2022-12-19T13:55:03.476Z,13.35
2022-12-19T13:57:23.873Z,11.07
2022-12-19T13:59:30.763Z,10.85
2022-12-19T14:01:37.516Z,13.20
2022-12-19T14:03:45.516Z,11.70
2022-12-19T14:06:18.784Z,9.63
2022-12-19T14:08:20.367Z,9.80
2022-12-19T14:11:33.477Z,10.52
2022-12-19T14:13:58.073Z,11.82
2022-12-19T14:15:41.760Z,10.40
2022-12-19T14:17:51.096Z,9.93
2022-12-19T14:20:48.838Z,8.95
2022-12-19T14:22:26.711Z,9.70
2022-12-19T14:24:37.189Z,9.18
2022-12-19T14:28:17.825Z,14.05
2022-12-19T14:29:10.600Z,8.02
2022-12-19T14:31:20.160Z,7.30
2022-12-19T14:33:47.266Z,11.85
2022-12-19T14:36:10.282Z,7.95
2022-12-19T14:39:26.951Z,8.65
2022-12-19T14:41:08.733Z,8.52
2022-12-19T14:43:59.130Z,8.45
2022-12-19T14:52:25.755Z,9.88
2022-12-19T14:54:18.341Z,9.82
2022-12-19T14:54:22.927Z,9.02
2022-12-19T14:54:40.198Z,11.32
2022-12-19T14:56:30.972Z,9.10
2022-12-19T14:58:55.922Z,8.30
2022-12-19T15:01:08.880Z,7.20
2022-12-19T15:03:20.709Z,6.75
2022-12-19T15:05:25.896Z,8.10
2022-12-19T15:07:32.491Z,9.10
2022-12-19T15:11:07.284Z,8.02
2022-12-19T15:14:55.046Z,10.07
2022-12-19T15:14:59.582Z,8.40
2022-12-19T15:17:05.971Z,9.18
2022-12-19T15:19:15.267Z,7.97
2022-12-19T15:21:19.968Z,9.40
2022-12-19T15:23:25.113Z,10.07
2022-12-19T15:26:01.990Z,8.10
2022-12-19T15:27:57.293Z,9.38
2022-12-19T15:30:02.098Z,9.57
2022-12-19T15:32:06.781Z,9.75
2022-12-19T15:34:48.304Z,8.82
2022-12-19T15:36:49.170Z,10.32
2022-12-19T15:38:53.795Z,9.85
2022-12-19T15:40:58.547Z,9.25
2022-12-19T15:43:06.407Z,8.65
2022-12-19T15:45:16.428Z,9.52
2022-12-19T15:47:23.432Z,8.18
2022-12-19T15:49:28.023Z,11.25
2022-12-19T15:51:32.660Z,7.97
2022-12-19T15:53:41.059Z,8.25
2022-12-19T15:55:46.226Z,10.00
2022-12-19T15:57:54.008Z,8.25
2022-12-19T16:00:03.859Z,9.13
2022-12-19T16:02:21.927Z,7.63
2022-12-19T16:04:27.181Z,9.88
2022-12-19T16:06:32.022Z,9.07
2022-12-19T16:08:36.632Z,10.25
2022-12-19T16:10:41.731Z,10.32
2022-12-19T16:12:50.755Z,11.10
2022-12-19T16:15:02.050Z,9.30
2022-12-19T16:17:06.932Z,7.43
2022-12-19T16:19:26.678Z,9.00
2022-12-19T16:21:34.474Z,10.07
2022-12-19T16:23:39.165Z,8.02
2022-12-19T16:25:45.392Z,10.63
2022-12-19T16:27:52.633Z,8.77
2022-12-19T16:29:58.755Z,8.88
2022-12-19T16:32:06.140Z,10.23
2022-12-19T16:34:16.510Z,8.80
2022-12-19T16:36:21.149Z,10.40
2022-12-19T16:38:26.442Z,9.90
2022-12-19T16:40:31.742Z,7.90
2022-12-19T16:42:36.556Z,8.68
2022-12-19T16:44:41.866Z,12.77
2022-12-19T16:46:50.681Z,9.98
2022-12-19T16:48:59.063Z,10.00
2022-12-19T16:51:04.954Z,10.25
2022-12-19T16:53:10.188Z,8.05
2022-12-19T16:55:15.365Z,9.98
2022-12-19T16:57:23.228Z,8.18
2022-12-19T16:59:31.978Z,8.43
2022-12-19T17:01:36.891Z,8.00
2022-12-19T17:03:43.871Z,9.65
2022-12-19T17:05:51.344Z,7.22
2022-12-19T17:07:56.993Z,9.10
2022-12-19T17:10:01.585Z,8.38
2022-12-19T17:12:06.624Z,10.32
2022-12-19T17:14:16.843Z,9.88
2022-12-19T17:16:21.676Z,9.07
2022-12-19T17:18:30.797Z,10.38
2022-12-19T17:20:40.634Z,10.82
2022-12-19T17:22:48.215Z,8.68
2022-12-19T17:24:53.135Z,9.50
2022-12-19T17:26:57.884Z,9.77
2022-12-19T17:29:02.582Z,9.60
2022-12-19T17:31:09.320Z,7.05
2022-12-19T17:33:16.439Z,9.98
2022-12-19T17:35:27.797Z,9.75
2022-12-19T17:37:36.019Z,9.45
2022-12-19T17:39:44.771Z,9.18
2022-12-19T17:41:49.692Z,9.70
2022-12-19T17:43:54.539Z,9.23
2022-12-19T17:45:59.643Z,8.57
2022-12-19T17:48:06.611Z,8.52
2022-12-19T17:50:21.543Z,10.45
2022-12-19T17:52:26.294Z,9.05
2022-12-19T17:54:30.953Z,12.18
2022-12-19T17:56:38.352Z,7.80
2022-12-19T17:58:43.048Z,9.07
2022-12-19T18:00:48.361Z,10.57
2022-12-19T18:02:55.831Z,10.57
2022-12-19T18:05:01.613Z,9.43
2022-12-19T18:07:06.340Z,10.50
2022-12-19T18:09:18.768Z,8.45
2022-12-19T18:11:25.909Z,9.75
2022-12-19T18:13:34.331Z,10.05
2022-12-19T18:15:39.804Z,7.47
2022-12-19T18:17:45.334Z,7.90
2022-12-19T18:19:50.411Z,7.15
2022-12-19T18:21:55.111Z,9.55
2022-12-19T18:23:59.875Z,10.43
2022-12-19T18:26:04.654Z,10.07
2022-12-19T18:28:09.357Z,10.80
2022-12-19T18:30:18.834Z,11.20
2022-12-19T18:32:23.839Z,8.23
2022-12-19T18:34:29.772Z,12.05
2022-12-19T18:36:37.490Z,11.05
2022-12-19T18:38:42.329Z,9.45
2022-12-19T18:40:47.351Z,7.45
2022-12-19T18:42:52.372Z,11.30
2022-12-19T18:45:00.111Z,8.80
2022-12-19T18:47:07.629Z,9.20
2022-12-19T18:49:15.805Z,8.80
2022-12-19T18:51:23.399Z,9.88
2022-12-19T18:53:36.488Z,11.45
2022-12-19T18:55:41.581Z,9.60
2022-12-19T18:57:46.943Z,12.10
2022-12-19T18:59:51.680Z,13.75
2022-12-19T19:01:57.550Z,10.27
2022-12-19T19:04:05.223Z,13.32
2022-12-19T19:06:17.149Z,12.82
2022-12-19T19:08:23.685Z,9.13
2022-12-19T19:10:30.744Z,10.00
2022-12-19T19:12:35.409Z,9.88
2022-12-19T19:14:44.839Z,8.85
2022-12-19T19:16:49.555Z,9.55
2022-12-19T19:18:55.717Z,10.35
2022-12-19T19:21:03.228Z,12.50
2022-12-19T19:23:10.546Z,13.13
2022-12-19T19:25:16.063Z,11.48
2022-12-19T19:27:20.892Z,9.50
2022-12-19T19:29:25.515Z,11.52
2022-12-19T19:31:31.227Z,7.72
2022-12-19T19:33:39.195Z,10.23
2022-12-19T19:35:45.810Z,9.48
2022-12-19T19:37:54.841Z,11.20
2022-12-19T19:39:59.550Z,12.48
2022-12-19T19:42:04.298Z,12.10
2022-12-19T19:44:09.218Z,7.00
2022-12-19T19:46:14.522Z,9.95
2022-12-19T19:48:21.540Z,11.77
2022-12-19T19:50:26.753Z,10.95
2022-12-19T19:52:31.716Z,10.45
2022-12-19T19:54:40.815Z,12.18
2022-12-19T19:56:45.548Z,9.88
2022-12-19T19:58:50.534Z,10.52
2022-12-19T20:00:57.037Z,15.10
2022-12-19T20:03:06.187Z,10.88
2022-12-19T20:05:12.943Z,10.80
2022-12-19T20:07:17.670Z,9.32
2022-12-19T20:09:24.955Z,10.10
2022-12-19T20:11:32.230Z,9.68
2022-12-19T20:13:37.694Z,10.60
2022-12-19T20:15:49.340Z,13.07
2022-12-19T20:17:54.589Z,11.20
2022-12-19T20:19:59.445Z,11.07
2022-12-19T20:22:04.498Z,10.45
2022-12-19T20:24:10.110Z,9.02
2022-12-19T20:26:18.349Z,12.10
2022-12-19T20:28:25.722Z,9.23
2022-12-19T20:30:32.580Z,10.48
2022-12-19T20:32:37.322Z,10.68
2022-12-19T20:34:44.523Z,11.30
2022-12-19T20:36:49.197Z,11.93
2022-12-19T20:38:54.494Z,10.88
2022-12-19T20:40:59.272Z,10.55
2022-12-19T20:43:03.839Z,12.65
2022-12-19T20:45:12.348Z,10.23
2022-12-19T20:47:16.931Z,10.77
2022-12-19T20:49:21.657Z,9.95
2022-12-19T20:51:26.543Z,10.30
2022-12-19T20:53:35.222Z,11.18
2022-12-19T20:55:39.963Z,13.18
2022-12-19T20:57:45.335Z,11.15
2022-12-19T20:59:50.089Z,8.50
2022-12-19T21:01:58.601Z,12.00
2022-12-19T21:04:04.070Z,10.60
2022-12-19T21:06:09.952Z,13.35
2022-12-19T21:08:15.033Z,9.18
2022-12-19T21:10:20.622Z,10.93
2022-12-19T21:12:25.231Z,12.10
2022-12-19T21:14:29.852Z,10.93
2022-12-19T21:16:36.706Z,10.70
2022-12-19T21:18:45.587Z,13.40
2022-12-19T21:20:50.721Z,9.27
2022-12-19T21:22:55.474Z,9.23
2022-12-19T21:25:00.156Z,10.68
2022-12-19T21:27:04.864Z,9.07
2022-12-19T21:29:09.771Z,11.15
2022-12-19T21:31:17.601Z,10.15
2022-12-19T21:33:22.295Z,12.50
2022-12-19T21:35:29.620Z,11.45
2022-12-19T21:37:39.796Z,13.93
2022-12-19T21:39:48.049Z,10.88
2022-12-19T21:41:52.718Z,13.30
2022-12-19T21:43:58.721Z,10.90
2022-12-19T21:46:11.518Z,11.57
2022-12-19T21:48:16.201Z,8.55
2022-12-19T21:50:21.060Z,10.60
2022-12-19T21:52:28.734Z,7.97
2022-12-19T21:54:33.601Z,10.85
2022-12-19T21:56:39.846Z,12.02
2022-12-19T21:58:47.655Z,12.05
2022-12-19T22:00:52.435Z,9.60
2022-12-19T22:03:13.121Z,11.35
2022-12-19T22:05:19.057Z,9.20
2022-12-19T22:07:23.975Z,10.13
2022-12-19T22:09:31.368Z,12.52
2022-12-19T22:11:36.580Z,7.70
2022-12-19T22:13:41.435Z,9.60
2022-12-19T22:15:46.557Z,9.98
2022-12-19T22:17:51.295Z,8.35
2022-12-19T22:19:55.993Z,9.88
2022-12-19T22:22:00.672Z,10.40
2022-12-19T22:24:07.617Z,9.65
2022-12-19T22:26:16.337Z,9.32
2022-12-19T22:28:21.192Z,9.77
2022-12-19T22:30:25.819Z,6.75
2022-12-19T22:32:30.665Z,16.17
2022-12-19T22:34:35.423Z,9.30
2022-12-19T22:36:42.483Z,8.57
2022-12-19T22:38:48.571Z,9.55
2022-12-19T22:40:53.533Z,9.65
2022-12-19T22:43:00.762Z,6.20
2022-12-19T22:45:05.327Z,13.98
2022-12-19T22:47:09.924Z,8.82
2022-12-19T22:49:15.877Z,7.90
2022-12-19T22:51:22.884Z,7.93
2022-12-19T22:53:27.630Z,7.65
2022-12-19T22:55:32.266Z,11.27
2022-12-19T22:57:37.129Z,9.98
2022-12-19T22:59:45.135Z,8.52
2022-12-19T23:01:49.861Z,9.98
2022-12-19T23:03:57.075Z,8.70
2022-12-19T23:06:03.920Z,9.77
2022-12-19T23:08:09.329Z,9.45
2022-12-19T23:10:14.345Z,10.55
2022-12-19T23:12:19.290Z,8.20
2022-12-19T23:14:24.519Z,8.40
2022-12-19T23:16:32.348Z,9.85
2022-12-19T23:18:37.044Z,9.10
2022-12-19T23:20:42.413Z,8.60
2022-12-19T23:22:47.250Z,8.98
2022-12-19T23:24:52.291Z,12.35
2022-12-19T23:26:57.013Z,8.55
2022-12-19T23:29:03.121Z,12.70
2022-12-19T23:31:08.669Z,10.05
2022-12-19T23:33:16.047Z,8.20
2022-12-19T23:35:20.643Z,8.48
2022-12-19T23:37:25.437Z,7.80
2022-12-19T23:39:30.097Z,10.15
2022-12-19T23:41:35.084Z,8.35
2022-12-19T23:43:40.595Z,8.10
2022-12-19T23:45:45.911Z,8.57
2022-12-19T23:47:50.811Z,8.88
2022-12-19T23:49:58.336Z,9.63
2022-12-19T23:52:03.642Z,6.72
2022-12-19T23:54:08.896Z,9.48
2022-12-19T23:56:17.751Z,8.95
2022-12-19T23:58:24.851Z,8.82
